createdAt,value
2023-01-11T00:03:24.855Z,1.16
2023-01-11T00:07:26.454Z,1.17
2023-01-11T00:11:27.795Z,1.30
2023-01-11T00:15:30.669Z,1.31
2023-01-11T00:19:32.005Z,1.33
2023-01-11T00:23:34.092Z,1.41
2023-01-11T00:27:35.423Z,1.67
2023-01-11T00:31:38.248Z,1.81
2023-01-11T00:35:39.639Z,1.81
2023-01-11T00:39:40.988Z,1.81
2023-01-11T00:43:42.316Z,1.92
2023-01-11T00:47:45.075Z,1.88
2023-01-11T00:51:46.456Z,1.92
2023-01-11T00:55:47.806Z,1.93
2023-01-11T00:59:49.191Z,2.05
2023-01-11T01:03:51.894Z,2.10
2023-01-11T01:07:53.262Z,1.89
2023-01-11T01:11:54.620Z,1.99
2023-01-11T01:15:56.532Z,2.07
2023-01-11T01:19:59.275Z,2.20
2023-01-11T01:24:00.614Z,2.21
2023-01-11T01:28:01.964Z,2.23
2023-01-11T01:32:03.349Z,2.21
2023-01-11T01:36:06.337Z,2.11
2023-01-11T01:40:08.705Z,2.23
2023-01-11T01:44:28.962Z,2.15
2023-01-11T01:48:30.316Z,2.10
2023-01-11T01:52:34.239Z,2.04
2023-01-11T01:56:38.138Z,2.12
2023-01-11T02:00:40.650Z,2.06
2023-01-11T02:04:44.197Z,2.14
2023-01-11T02:08:49.391Z,2.17
2023-01-11T02:12:52.485Z,2.11
2023-01-11T02:16:53.840Z,2.17
2023-01-11T02:21:06.451Z,2.16
2023-01-11T02:25:26.631Z,2.18
2023-01-11T02:29:36.983Z,2.24
2023-01-11T02:33:42.808Z,2.36
2023-01-11T02:37:50.975Z,2.15
2023-01-11T02:41:56.244Z,2.23
2023-01-11T02:46:01.878Z,2.33
2023-01-11T02:50:07.665Z,2.32
2023-01-11T02:54:09.943Z,2.31
2023-01-11T02:58:12.395Z,2.30
2023-01-11T03:02:15.329Z,2.42
2023-01-11T03:06:18.348Z,2.40
2023-01-11T03:10:25.062Z,2.41
2023-01-11T03:14:28.551Z,2.43
2023-01-11T03:18:37.888Z,2.35
2023-01-11T03:22:46.082Z,2.35
2023-01-11T03:26:53.257Z,2.32
2023-01-11T03:30:58.739Z,2.23
2023-01-11T03:35:08.292Z,2.24
2023-01-11T03:39:14.641Z,2.07
2023-01-11T03:43:18.366Z,1.91
2023-01-11T03:47:22.044Z,1.89
2023-01-11T03:51:26.250Z,1.86
2023-01-11T03:55:30.587Z,1.69
2023-01-11T03:59:32.350Z,1.78
2023-01-11T04:03:33.722Z,1.83
2023-01-11T04:07:36.501Z,1.77
2023-01-11T04:11:37.858Z,1.73
2023-01-11T04:15:39.257Z,1.69
2023-01-11T04:19:40.607Z,1.73
2023-01-11T04:23:43.301Z,1.90
2023-01-11T04:27:44.645Z,1.89
2023-01-11T04:31:46.096Z,1.94
2023-01-11T04:35:47.477Z,2.10
2023-01-11T04:39:50.228Z,2.08
2023-01-11T04:43:53.592Z,2.06
2023-01-11T04:47:55.194Z,2.12
2023-01-11T04:51:56.557Z,2.15
2023-01-11T04:56:00.913Z,2.21
2023-01-11T05:00:02.268Z,2.30
2023-01-11T05:04:03.786Z,2.35
2023-01-11T05:08:05.302Z,2.32
2023-01-11T05:12:08.185Z,2.42
2023-01-11T05:16:10.777Z,2.55
2023-01-11T05:20:12.214Z,2.36
2023-01-11T05:24:14.599Z,2.51
2023-01-11T05:28:17.373Z,2.49
2023-01-11T05:32:18.728Z,2.63
2023-01-11T05:36:21.415Z,2.59
2023-01-11T05:40:22.799Z,2.43
2023-01-11T05:44:25.556Z,2.64
2023-01-11T05:48:26.961Z,2.71
2023-01-11T05:52:28.307Z,2.78
2023-01-11T05:56:29.695Z,2.83
2023-01-11T06:00:32.450Z,2.69
2023-01-11T06:04:33.828Z,2.63
2023-01-11T06:08:35.472Z,2.77
2023-01-11T06:12:36.824Z,2.61
2023-01-11T06:16:39.591Z,2.65
2023-01-11T06:20:41.013Z,2.56
2023-01-11T06:24:42.371Z,2.49
2023-01-11T06:28:43.752Z,2.61
2023-01-11T06:32:46.479Z,2.50
2023-01-11T06:36:47.846Z,2.54
2023-01-11T06:40:51.741Z,2.57
2023-01-11T06:44:53.118Z,2.69
2023-01-11T06:48:55.853Z,2.71
2023-01-11T06:52:58.369Z,2.78
2023-01-11T06:56:59.732Z,2.81
2023-01-11T07:01:01.144Z,2.81
2023-01-11T07:05:04.247Z,2.83
2023-01-11T07:09:05.699Z,2.80
2023-01-11T07:13:07.048Z,2.95
2023-01-11T07:17:08.388Z,2.90
2023-01-11T07:21:11.074Z,2.95
2023-01-11T07:25:12.445Z,2.98
2023-01-11T07:29:13.794Z,3.01
2023-01-11T07:33:15.185Z,3.02
2023-01-11T07:37:28.056Z,2.92
2023-01-11T07:41:30.801Z,3.00
2023-01-11T07:45:44.693Z,3.00
2023-01-11T07:49:46.967Z,3.00
2023-01-11T07:53:49.714Z,3.09
2023-01-11T07:57:51.072Z,3.12
2023-01-11T08:01:52.568Z,3.15
2023-01-11T08:05:53.973Z,3.21
2023-01-11T08:09:56.705Z,3.42
2023-01-11T08:13:58.077Z,3.51
2023-01-11T08:17:59.907Z,3.55
2023-01-11T08:22:01.290Z,3.47
2023-01-11T08:26:04.078Z,3.35
2023-01-11T08:30:06.147Z,3.33
2023-01-11T08:34:08.074Z,3.26
2023-01-11T08:38:09.505Z,3.31
2023-01-11T08:42:12.214Z,3.41
2023-01-11T08:46:13.598Z,3.64
2023-01-11T08:50:15.041Z,3.82
2023-01-11T08:54:16.404Z,3.89
2023-01-11T08:58:21.502Z,3.97
2023-01-11T09:02:22.974Z,4.04
2023-01-11T09:06:24.369Z,3.96
2023-01-11T09:10:25.778Z,4.15
2023-01-11T09:14:28.564Z,4.20
2023-01-11T09:18:29.939Z,4.31
2023-01-11T09:22:31.283Z,4.33
2023-01-11T09:26:32.636Z,4.29
2023-01-11T09:30:35.428Z,4.46
2023-01-11T09:34:36.779Z,4.75
2023-01-11T09:38:38.149Z,4.82
2023-01-11T09:42:39.928Z,5.15
2023-01-11T09:46:44.284Z,5.21
2023-01-11T09:50:46.843Z,5.36
2023-01-11T09:54:48.264Z,5.41
2023-01-11T09:58:54.867Z,5.40
2023-01-11T10:03:08.498Z,5.53
2023-01-11T10:07:27.566Z,5.68
2023-01-11T10:18:38.764Z,5.59
2023-01-11T10:20:25.386Z,5.80
2023-01-11T10:24:28.533Z,5.96
2023-01-11T10:28:31.895Z,6.04
2023-01-11T10:32:37.238Z,6.17
2023-01-11T10:36:45.506Z,6.28
2023-01-11T10:40:52.425Z,6.25
2023-01-11T10:44:57.448Z,6.39
2023-01-11T10:49:02.050Z,6.51
2023-01-11T10:53:12.365Z,6.27
2023-01-11T10:57:18.159Z,6.30
2023-01-11T11:01:23.064Z,6.32
2023-01-11T11:05:31.313Z,6.41
2023-01-11T11:09:40.057Z,6.49
2023-01-11T11:13:46.540Z,6.36
2023-01-11T11:17:50.308Z,6.41
2023-01-11T11:21:51.772Z,6.48
2023-01-11T11:25:57.231Z,6.28
2023-01-11T11:29:58.615Z,6.45
2023-01-11T11:34:04.717Z,6.46
2023-01-11T11:38:06.433Z,6.46
2023-01-11T11:42:15.120Z,6.51
2023-01-11T11:46:21.412Z,6.48
2023-01-11T11:50:43.297Z,6.49
2023-01-11T11:54:49.767Z,6.57
2023-01-11T11:58:53.064Z,6.48
2023-01-11T12:02:56.155Z,6.08
2023-01-11T12:07:05.205Z,5.96
2023-01-11T12:11:07.754Z,5.89
2023-01-11T12:15:20.705Z,6.07
2023-01-11T12:19:26.182Z,6.05
2023-01-11T12:23:27.553Z,6.32
2023-01-11T12:27:34.154Z,6.10
2023-01-11T12:31:41.658Z,6.12
2023-01-11T12:35:47.577Z,6.32
2023-01-11T12:39:55.198Z,6.24
2023-01-11T12:44:01.214Z,6.34
2023-01-11T12:48:28.177Z,6.46
2023-01-11T12:52:41.252Z,6.39
2023-01-11T12:57:05.742Z,6.34
2023-01-11T13:01:20.509Z,6.36
2023-01-11T13:05:25.968Z,6.28
2023-01-11T13:09:32.398Z,6.11
2023-01-11T13:13:37.639Z,6.04
2023-01-11T13:17:41.690Z,6.07
2023-01-11T13:21:47.413Z,6.13
2023-01-11T13:25:51.299Z,5.98
2023-01-11T13:29:55.023Z,5.89
2023-01-11T13:34:00.238Z,5.80
2023-01-11T13:38:08.046Z,5.62
2023-01-11T13:42:13.339Z,5.55
2023-01-11T13:46:19.416Z,5.44
2023-01-11T13:50:23.574Z,5.45
2023-01-11T13:54:31.165Z,5.50
2023-01-11T13:58:37.085Z,5.36
2023-01-11T14:02:42.784Z,5.59
2023-01-11T14:06:51.038Z,5.52
2023-01-11T14:10:58.472Z,5.51
2023-01-11T14:15:07.299Z,5.49
2023-01-11T14:19:14.883Z,5.42
2023-01-11T14:23:17.114Z,5.58
2023-01-11T14:27:32.017Z,5.47
2023-01-11T14:31:58.076Z,5.50
2023-01-11T14:36:15.261Z,5.48
2023-01-11T14:40:33.664Z,5.49
2023-01-11T14:44:46.700Z,5.41
2023-01-11T14:48:50.222Z,5.38
2023-01-11T14:52:53.501Z,5.39
2023-01-11T14:56:55.328Z,5.18
2023-01-11T15:01:11.159Z,5.38
2023-01-11T15:05:33.564Z,5.41
2023-01-11T15:09:42.173Z,5.52
2023-01-11T15:13:46.172Z,5.48
2023-01-11T15:17:53.970Z,5.45
2023-01-11T15:21:56.163Z,5.47
2023-01-11T15:26:02.092Z,5.41
2023-01-11T15:30:05.657Z,5.55
2023-01-11T15:34:24.767Z,5.56
2023-01-11T15:38:30.944Z,5.54
2023-01-11T15:43:05.410Z,5.51
2023-01-11T15:47:17.160Z,5.60
2023-01-11T15:51:23.660Z,5.63
2023-01-11T15:55:42.816Z,5.66
2023-01-11T16:00:00.840Z,5.72
2023-01-11T16:04:14.637Z,5.75
2023-01-11T16:08:19.290Z,5.93
2023-01-11T16:12:38.140Z,5.89
2023-01-11T16:16:41.173Z,5.99
2023-01-11T16:20:45.252Z,6.04
2023-01-11T16:24:47.732Z,6.08
2023-01-11T16:28:50.670Z,6.24
2023-01-11T16:32:52.127Z,6.19
2023-01-11T16:36:54.929Z,6.16
2023-01-11T16:40:57.281Z,6.12
2023-01-11T16:45:00.283Z,6.22
2023-01-11T16:49:08.559Z,6.38
2023-01-11T16:53:12.824Z,6.30
2023-01-11T16:57:16.467Z,6.30
2023-01-11T17:01:18.196Z,6.22
2023-01-11T17:05:20.650Z,6.21
2023-01-11T17:09:23.506Z,6.14
2023-01-11T17:13:32.799Z,6.19
2023-01-11T17:17:34.663Z,6.13
2023-01-11T17:21:36.421Z,6.06
2023-01-11T17:25:44.903Z,6.12
2023-01-11T17:29:47.560Z,5.97
2023-01-11T17:33:50.030Z,5.95
2023-01-11T17:37:52.854Z,5.99
2023-01-11T17:41:56.125Z,5.93
2023-01-11T17:45:58.452Z,5.89
2023-01-11T17:50:01.177Z,5.87
2023-01-11T17:54:02.599Z,5.82
2023-01-11T17:58:11.158Z,5.76
2023-01-11T18:02:13.757Z,5.71
2023-01-11T18:06:21.287Z,5.77
2023-01-11T18:10:23.942Z,5.96
2023-01-11T18:14:28.541Z,5.84
2023-01-11T18:18:43.160Z,5.87
2023-01-11T18:22:56.462Z,5.85
2023-01-11T18:27:18.574Z,6.00
2023-01-11T18:31:21.373Z,6.02
2023-01-11T18:35:23.268Z,6.15
2023-01-11T18:39:24.821Z,6.09
2023-01-11T18:43:27.930Z,6.05
2023-01-11T18:47:30.672Z,6.11
2023-01-11T18:51:33.720Z,6.14
2023-01-11T18:55:35.102Z,6.22
2023-01-11T18:59:36.553Z,6.19
2023-01-11T19:03:39.337Z,6.29
2023-01-11T19:07:40.799Z,6.18
2023-01-11T19:11:42.182Z,6.15
2023-01-11T19:15:43.568Z,6.10
2023-01-11T19:19:46.469Z,6.10
2023-01-11T19:23:47.836Z,6.02
2023-01-11T19:27:50.341Z,6.01
2023-01-11T19:31:52.592Z,6.05
2023-01-11T19:35:55.352Z,6.08
2023-01-11T19:39:56.752Z,6.32
2023-01-11T19:43:58.129Z,6.22
2023-01-11T19:47:59.542Z,6.12
2023-01-11T19:52:02.285Z,6.18
2023-01-11T19:56:04.818Z,6.04
2023-01-11T20:00:06.724Z,5.97
2023-01-11T20:04:08.329Z,5.93
2023-01-11T20:08:11.091Z,5.96
2023-01-11T20:12:13.174Z,5.90
2023-01-11T20:16:14.667Z,5.86
2023-01-11T20:20:16.358Z,5.94
2023-01-11T20:24:19.137Z,5.92
2023-01-11T20:28:20.483Z,5.89
2023-01-11T20:32:40.914Z,5.81
2023-01-11T20:36:43.597Z,5.84
2023-01-11T20:40:46.319Z,5.79
2023-01-11T20:44:47.693Z,5.79
2023-01-11T20:48:49.093Z,5.77
2023-01-11T20:52:50.637Z,5.75
2023-01-11T20:56:53.365Z,5.73
2023-01-11T21:00:54.730Z,5.75
2023-01-11T21:04:56.083Z,5.81
2023-01-11T21:08:58.446Z,5.75
2023-01-11T21:13:01.151Z,5.93
2023-01-11T21:17:02.490Z,5.83
2023-01-11T21:21:04.095Z,5.74
2023-01-11T21:25:05.978Z,5.85
2023-01-11T21:29:09.419Z,5.85
2023-01-11T21:33:10.788Z,5.86
2023-01-11T21:37:12.143Z,6.01
2023-01-11T21:41:15.107Z,6.02
2023-01-11T21:45:20.621Z,6.10
2023-01-11T21:49:22.086Z,6.13
2023-01-11T21:53:23.682Z,6.16
2023-01-11T21:57:25.083Z,6.24
2023-01-11T22:01:28.093Z,6.38
2023-01-11T22:05:30.520Z,6.63
2023-01-11T22:09:31.872Z,6.62
2023-01-11T22:13:33.928Z,6.71
2023-01-11T22:17:37.007Z,6.75
2023-01-11T22:21:38.362Z,6.78
2023-01-11T22:25:39.742Z,6.78
2023-01-11T22:29:41.079Z,6.83
2023-01-11T22:33:43.817Z,6.79
2023-01-11T22:37:45.195Z,6.75
2023-01-11T22:41:46.661Z,6.64
2023-01-11T22:45:56.094Z,6.32
2023-01-11T22:49:58.920Z,6.17
2023-01-11T22:54:00.297Z,6.01
2023-01-11T22:58:01.660Z,5.84
2023-01-11T23:02:03.025Z,5.79
2023-01-11T23:06:06.155Z,5.68
2023-01-11T23:10:07.937Z,5.64
2023-01-11T23:14:10.376Z,5.67
2023-01-11T23:18:11.804Z,5.84
2023-01-11T23:22:15.295Z,6.08
2023-01-11T23:26:16.655Z,6.13
2023-01-11T23:30:18.092Z,6.20
2023-01-11T23:34:19.483Z,6.08
2023-01-11T23:38:22.253Z,6.05
2023-01-11T23:42:23.622Z,6.06
2023-01-11T23:46:25.214Z,6.06
2023-01-11T23:50:26.578Z,5.92
2023-01-11T23:54:31.105Z,5.88
2023-01-11T23:58:32.475Z,5.83
